Time;durP1;ratioP1;P1;durP2;ratioP2;P2;SDS_P1;SDS_P2;PMS_P1;PMS_P2;Temp;Humidity;BMP_temperature;BMP_pressure;BME280_temperature;BME280_humidity;BME280_pressure;Samples;Min_cycle;Max_cycle;Signal;HPM_P1;HPM_P2
2022/01/15 00:01:37;;;;;;;181.27;35.97;;;;;;;-145.18;100.00;46845.97;5029072;28;20041;-70
2022/01/15 00:04:02;;;;;;;275.23;37.37;;;;;;;-145.18;100.00;46836.19;5029304;28;20136;-72
2022/01/15 00:06:28;;;;;;;143.43;32.70;;;;;;;-145.18;100.00;46853.78;5029062;28;20128;-69
2022/01/15 00:08:53;;;;;;;174.63;36.90;;;;;;;-145.18;100.00;46836.19;5028724;28;20427;-69
2022/01/15 00:11:18;;;;;;;172.70;33.30;;;;;;;-145.18;100.00;46818.63;5027744;28;20087;-70
2022/01/15 00:13:51;;;;;;;179.97;36.50;;;;;;;-145.18;100.00;46834.25;5027374;28;20048;-70
2022/01/15 00:16:29;;;;;;;170.07;35.13;;;;;;;-145.18;100.00;46836.19;5028981;28;20084;-70
2022/01/15 00:21:29;;;;;;;180.87;33.57;;;;;;;-145.18;100.00;46840.09;5029256;28;20277;-69
2022/01/15 00:23:55;;;;;;;127.43;31.93;;;;;;;-145.18;100.00;46826.44;5028184;28;20369;-69
2022/01/15 00:26:20;;;;;;;154.87;30.17;;;;;;;-145.18;100.00;46832.28;5028666;28;20125;-69
2022/01/15 00:28:46;;;;;;;144.27;30.97;;;;;;;-145.18;100.00;46814.72;5028477;28;20042;-69
2022/01/15 00:31:11;;;;;;;154.63;32.50;;;;;;;-145.18;100.00;46840.09;5028470;28;20412;-70
2022/01/15 00:33:37;;;;;;;221.53;34.33;;;;;;;-145.18;100.00;46845.97;5029021;28;20572;-69
2022/01/15 00:36:02;;;;;;;173.47;33.93;;;;;;;-145.18;100.00;46818.63;5028603;28;20414;-69
2022/01/15 00:38:28;;;;;;;161.53;34.90;;;;;;;-145.18;100.00;46810.81;5028388;28;20351;-69
2022/01/15 00:40:53;;;;;;;184.90;33.23;;;;;;;-145.18;100.00;46822.53;5028068;28;20034;-69
2022/01/15 00:43:19;;;;;;;169.60;34.17;;;;;;;-145.18;100.00;46803.00;5028234;28;20100;-69
2022/01/15 00:45:45;;;;;;;179.93;32.60;;;;;;;-145.18;100.00;46814.72;5028023;28;20048;-71
2022/01/15 00:48:10;;;;;;;177.77;33.20;;;;;;;-145.18;100.00;46816.66;5024870;28;20045;-69
2022/01/15 00:50:36;;;;;;;147.70;34.63;;;;;;;-145.18;100.00;46816.66;5028126;28;20333;-69
2022/01/15 00:53:01;;;;;;;177.17;34.93;;;;;;;-145.18;100.00;46760.00;5028301;28;20501;-69
2022/01/15 00:55:27;;;;;;;163.40;35.30;;;;;;;-145.18;100.00;46797.13;5027681;28;20121;-70
2022/01/15 00:57:53;;;;;;;146.73;33.33;;;;;;;-145.18;100.00;46834.25;5028240;28;20418;-69
2022/01/15 01:00:23;;;;;;;155.87;34.30;;;;;;;-145.18;100.00;46814.72;5027611;28;20047;-70
2022/01/15 01:02:49;;;;;;;147.27;33.60;;;;;;;-145.18;100.00;46824.47;5028597;28;20482;-69
2022/01/15 01:05:15;;;;;;;200.40;34.37;;;;;;;-145.18;100.00;46803.00;5027532;28;20282;-69
2022/01/15 01:07:41;;;;;;;144.50;31.43;;;;;;;-145.18;100.00;46804.94;5028108;28;20271;-69
2022/01/15 01:20:57;;;;;;;109.27;27.53;;;;;;;-145.18;100.00;46816.66;5027619;28;20277;-69
2022/01/15 01:23:20;;;;;;;113.60;28.50;;;;;;;-145.18;100.00;46820.56;5027845;28;20345;-69
2022/01/15 01:25:50;;;;;;;111.30;26.37;;;;;;;-145.18;100.00;46818.63;5027263;28;20055;-69
2022/01/15 01:30:53;;;;;;;109.13;27.47;;;;;;;-145.18;100.00;46824.47;5027507;28;20267;-69
2022/01/15 01:36:01;;;;;;;99.67;27.13;;;;;;;-145.18;100.00;46820.56;5027198;28;20398;-69
2022/01/15 01:38:32;;;;;;;126.30;28.50;;;;;;;-145.18;100.00;46826.44;5027423;28;20262;-69
2022/01/15 01:40:59;;;;;;;105.47;28.67;;;;;;;-145.18;100.00;46818.63;5026129;28;20259;-69
2022/01/15 01:43:42;;;;;;;123.07;28.67;;;;;;;-145.18;100.00;46808.84;5025553;28;20275;-69
2022/01/15 01:46:16;;;;;;;113.30;26.57;;;;;;;-145.18;100.00;46828.38;5027371;28;20338;-69
2022/01/15 01:48:43;;;;;;;125.35;27.55;;;;;;;-145.18;100.00;46824.47;5026919;28;20271;-69
2022/01/15 01:51:08;;;;;;;97.13;25.97;;;;;;;-145.18;100.00;46838.16;5027107;28;25520;-69
2022/01/15 01:53:35;;;;;;;91.60;24.50;;;;;;;-145.18;100.00;46830.34;5027105;28;20270;-69
2022/01/15 01:56:01;;;;;;;90.07;24.23;;;;;;;-145.18;100.00;46842.06;5026934;28;20065;-69
2022/01/15 01:58:27;;;;;;;99.30;24.03;;;;;;;-145.18;100.00;46822.53;5027121;28;20286;-69
2022/01/15 02:00:52;;;;;;;95.63;24.97;;;;;;;-145.18;100.00;46865.50;5026972;28;20266;-69
2022/01/15 02:03:17;;;;;;;102.50;26.23;;;;;;;-145.18;100.00;46849.88;5027630;28;20038;-69
2022/01/15 02:05:43;;;;;;;83.63;24.57;;;;;;;-145.18;100.00;46844.00;5026360;28;20525;-69
2022/01/15 02:08:08;;;;;;;130.40;28.47;;;;;;;-145.18;100.00;46859.63;5027254;28;20117;-69
2022/01/15 02:10:34;;;;;;;104.13;25.70;;;;;;;-145.18;100.00;46847.91;5026831;28;20073;-71
2022/01/15 02:13:01;;;;;;;120.30;27.20;;;;;;;-145.18;100.00;46847.91;5009426;28;20095;-69
2022/01/15 02:15:27;;;;;;;91.70;27.47;;;;;;;-145.18;100.00;46836.19;5026542;28;20033;-69
2022/01/15 02:17:53;;;;;;;96.00;25.80;;;;;;;-145.18;100.00;46853.78;5027132;28;20385;-68
2022/01/15 02:25:54;;;;;;;117.00;24.37;;;;;;;-145.18;100.00;46859.63;5026258;28;20336;-71
2022/01/15 02:28:22;;;;;;;81.03;23.53;;;;;;;-145.18;100.00;46834.25;5026653;28;20278;-71
2022/01/15 02:30:53;;;;;;;101.73;24.00;;;;;;;-145.18;100.00;46859.63;5026479;28;20275;-68
2022/01/15 02:33:19;;;;;;;99.27;24.60;;;;;;;-145.18;100.00;46857.69;5025291;28;20332;-68
2022/01/15 02:35:44;;;;;;;107.30;25.93;;;;;;;-145.18;100.00;46857.69;5026049;28;20279;-68
2022/01/15 02:38:12;;;;;;;101.63;24.47;;;;;;;-145.18;100.00;46840.09;5026627;28;20098;-68
2022/01/15 02:40:38;;;;;;;95.07;25.40;;;;;;;-145.18;100.00;46838.16;5026362;28;20057;-69
2022/01/15 02:43:14;;;;;;;103.63;26.40;;;;;;;-145.18;100.00;46832.28;5026891;28;20329;-69
2022/01/15 02:45:43;;;;;;;;;;;;;;;-145.18;100.00;46814.72;5025830;28;20361;-68
2022/01/15 02:48:18;;;;;;;100.70;24.87;;;;;;;-145.18;100.00;46834.25;5026937;28;19917;-69
2022/01/15 02:50:45;;;;;;;86.93;23.67;;;;;;;-145.18;100.00;46822.53;5024937;28;20309;-71
2022/01/15 02:53:14;;;;;;;101.30;25.53;;;;;;;-145.18;100.00;46832.28;5026816;28;20389;-71
2022/01/15 02:55:44;;;;;;;110.07;25.73;;;;;;;-145.18;100.00;46840.09;5025983;28;20294;-71
2022/01/15 02:58:09;;;;;;;91.00;24.90;;;;;;;-145.18;100.00;46844.00;5025327;28;20380;-68
2022/01/15 03:00:36;;;;;;;101.60;24.57;;;;;;;-145.18;100.00;46855.72;5029204;28;20775;-69
2022/01/15 03:03:01;;;;;;;92.63;23.33;;;;;;;-145.18;100.00;46847.91;5031061;28;20088;-70
2022/01/15 03:05:27;;;;;;;98.67;25.37;;;;;;;-145.18;100.00;46840.09;5029541;28;20279;-69
2022/01/15 03:07:52;;;;;;;102.17;26.07;;;;;;;-145.18;100.00;46822.53;5030188;28;20128;-68
2022/01/15 03:10:18;;;;;;;104.37;26.40;;;;;;;-145.18;100.00;46844.00;5030015;28;20049;-69
2022/01/15 03:12:43;;;;;;;91.70;23.90;;;;;;;-145.18;100.00;46844.00;5030148;28;20041;-68
2022/01/15 03:15:10;;;;;;;103.30;24.83;;;;;;;-145.18;100.00;46844.00;5029661;28;20398;-68
2022/01/15 03:17:35;;;;;;;91.47;22.50;;;;;;;-145.18;100.00;46847.91;5030777;28;20044;-68
2022/01/15 03:20:04;;;;;;;105.17;25.53;;;;;;;-145.18;100.00;46861.59;5029631;28;20279;-68
2022/01/15 03:22:29;;;;;;;98.37;23.50;;;;;;;-145.18;100.00;46853.78;5030226;28;20050;-68
2022/01/15 03:24:55;;;;;;;97.87;23.07;;;;;;;-145.18;100.00;46855.72;5028928;28;20779;-71
2022/01/15 03:27:23;;;;;;;115.93;26.23;;;;;;;-145.18;100.00;46865.50;5030152;28;20033;-68
2022/01/15 03:29:52;;;;;;;112.63;24.23;;;;;;;-145.18;100.00;46859.63;5028698;28;20103;-69
2022/01/15 03:32:19;;;;;;;110.70;21.70;;;;;;;-145.18;100.00;46883.09;5030266;28;20263;-71
2022/01/15 03:34:44;;;;;;;107.97;24.10;;;;;;;-145.18;100.00;46857.69;5029169;28;20278;-71
2022/01/15 03:37:10;;;;;;;103.80;20.73;;;;;;;-145.18;100.00;46865.50;5030266;28;20600;-70
2022/01/15 03:39:35;;;;;;;104.70;22.90;;;;;;;-145.18;100.00;46853.78;5029362;28;20505;-71
2022/01/15 03:42:02;;;;;;;139.97;24.60;;;;;;;-145.18;100.00;46853.78;5029739;28;20045;-71
2022/01/15 03:44:28;;;;;;;98.30;20.83;;;;;;;-145.18;100.00;46859.63;5029373;28;20033;-68
2022/01/15 03:46:53;;;;;;;98.30;21.73;;;;;;;-145.18;100.00;46836.19;5029353;28;20290;-71
2022/01/15 03:49:19;;;;;;;107.77;21.17;;;;;;;-145.18;100.00;46830.34;5029756;28;20034;-71
2022/01/15 03:51:44;;;;;;;125.93;25.83;;;;;;;-145.18;100.00;46840.09;5029484;28;20425;-71
2022/01/15 03:54:09;;;;;;;110.57;23.00;;;;;;;-145.18;100.00;46820.56;5029178;28;20087;-69
2022/01/15 03:56:35;;;;;;;113.93;25.33;;;;;;;-145.18;100.00;46836.19;5029120;28;20040;-68
2022/01/15 03:59:00;;;;;;;108.50;24.47;;;;;;;-145.18;100.00;46832.28;5028878;28;20041;-68
2022/01/15 04:01:26;;;;;;;100.27;23.70;;;;;;;-145.18;100.00;46820.56;5029183;28;20128;-68
2022/01/15 04:03:51;;;;;;;91.43;22.63;;;;;;;-145.18;100.00;46824.47;5029193;28;20054;-71
2022/01/15 04:06:16;;;;;;;98.03;22.80;;;;;;;-145.18;100.00;46844.00;5029437;28;20051;-70
2022/01/15 04:08:42;;;;;;;103.53;22.57;;;;;;;-145.18;100.00;46816.66;5028995;28;20037;-70
2022/01/15 04:11:07;;;;;;;117.17;21.80;;;;;;;-145.18;100.00;46832.28;5028354;28;20042;-71
2022/01/15 04:13:32;;;;;;;100.30;22.17;;;;;;;-145.18;100.00;46845.97;5027801;28;20040;-71
2022/01/15 04:16:00;;;;;;;139.83;24.13;;;;;;;-145.18;100.00;46834.25;5028483;28;20041;-70
2022/01/15 04:18:28;;;;;;;122.73;26.27;;;;;;;-145.18;100.00;46842.06;5029074;28;20094;-71
2022/01/15 04:20:53;;;;;;;110.43;24.57;;;;;;;-145.18;100.00;46826.44;5027521;28;20259;-69
2022/01/15 04:23:19;;;;;;;117.43;24.27;;;;;;;-145.18;100.00;46847.91;5029109;28;20325;-68
2022/01/15 04:25:44;;;;;;;122.20;24.20;;;;;;;-145.18;100.00;46840.09;5027450;28;20037;-68
2022/01/15 04:28:11;;;;;;;113.97;24.83;;;;;;;-145.18;100.00;46820.56;5028166;28;20051;-71
2022/01/15 04:30:40;;;;;;;120.77;25.43;;;;;;;-145.18;100.00;46818.63;5027720;28;20034;-68
2022/01/15 04:33:06;;;;;;;142.27;27.83;;;;;;;-145.18;100.00;46838.16;5028615;28;20377;-68
2022/01/15 04:35:31;;;;;;;153.97;27.07;;;;;;;-145.18;100.00;46836.19;5028117;28;20665;-71
2022/01/15 04:38:04;;;;;;;144.03;28.77;;;;;;;-145.18;100.00;46838.16;5028750;28;20048;-70
2022/01/15 04:40:30;;;;;;;122.70;29.83;;;;;;;-145.18;100.00;46820.56;5028188;28;20041;-69
2022/01/15 04:42:55;;;;;;;120.07;28.90;;;;;;;-145.18;100.00;46838.16;5029024;28;20336;-67
2022/01/15 04:45:20;;;;;;;128.27;27.07;;;;;;;-145.18;100.00;46830.34;5028000;28;20042;-68
2022/01/15 04:47:46;;;;;;;111.03;26.73;;;;;;;-145.18;100.00;46820.56;5028407;28;20061;-68
2022/01/15 04:50:16;;;;;;;124.90;26.73;;;;;;;-145.18;100.00;46828.38;5027998;28;20410;-68
2022/01/15 04:52:42;;;;;;;116.83;28.40;;;;;;;-145.18;100.00;46804.94;5028244;28;20034;-69
2022/01/15 04:55:09;;;;;;;122.17;27.33;;;;;;;-145.18;100.00;46836.19;5027699;28;20777;-68
2022/01/15 04:57:35;;;;;;;129.23;27.03;;;;;;;-145.18;100.00;46820.56;5026914;28;20425;-69
2022/01/15 05:00:01;;;;;;;131.17;27.23;;;;;;;-145.18;100.00;46820.56;5028528;28;20289;-68
2022/01/15 05:02:26;;;;;;;107.07;24.30;;;;;;;-145.18;100.00;46820.56;5028310;28;20045;-68
2022/01/15 05:04:51;;;;;;;128.23;26.90;;;;;;;-145.18;100.00;46836.19;5026854;28;20038;-68
2022/01/15 05:07:17;;;;;;;107.97;25.20;;;;;;;-145.18;100.00;46818.63;5018713;28;20060;-68
2022/01/15 05:09:43;;;;;;;125.60;25.70;;;;;;;-145.18;100.00;46832.28;5008221;28;20038;-68
2022/01/15 05:12:12;;;;;;;109.33;27.90;;;;;;;-145.18;100.00;46826.44;5008022;28;20100;-68
2022/01/15 05:14:37;;;;;;;131.47;28.87;;;;;;;-145.18;100.00;46818.63;5007714;28;20360;-68
2022/01/15 05:17:03;;;;;;;114.57;28.20;;;;;;;-145.18;100.00;46812.75;5008600;28;20279;-69
2022/01/15 05:19:29;;;;;;;116.97;28.10;;;;;;;-145.18;100.00;46808.84;5007956;28;20046;-68
2022/01/15 05:21:55;;;;;;;116.67;30.00;;;;;;;-145.18;100.00;46818.63;5007128;28;20129;-68
2022/01/15 05:24:21;;;;;;;103.90;27.67;;;;;;;-145.18;100.00;46799.09;5008103;28;20045;-68
2022/01/15 05:26:46;;;;;;;119.57;29.77;;;;;;;-145.18;100.00;46826.44;5007275;28;20288;-69
2022/01/15 05:29:12;;;;;;;161.33;32.53;;;;;;;-145.18;100.00;46818.63;5008172;28;20535;-68
2022/01/15 05:31:38;;;;;;;146.70;32.70;;;;;;;-145.18;100.00;46812.75;5017298;28;20451;-68
2022/01/15 05:34:03;;;;;;;125.03;30.83;;;;;;;-145.18;100.00;46814.72;5016439;28;20057;-68
2022/01/15 05:36:30;;;;;;;133.30;29.57;;;;;;;-145.18;100.00;46812.75;5024053;28;20046;-68
2022/01/15 05:38:55;;;;;;;148.30;30.23;;;;;;;-145.18;100.00;46844.00;5023848;28;20069;-68
2022/01/15 05:41:21;;;;;;;120.30;29.37;;;;;;;-145.18;100.00;46820.56;5021297;28;20413;-68
2022/01/15 05:43:46;;;;;;;123.07;30.27;;;;;;;-145.18;100.00;46820.56;5026805;28;20038;-68
2022/01/15 05:46:12;;;;;;;147.07;32.20;;;;;;;-145.18;100.00;46824.47;5026908;28;20076;-68
2022/01/15 05:48:37;;;;;;;154.00;32.63;;;;;;;-145.18;100.00;46812.75;5027045;28;20041;-68
2022/01/15 05:51:02;;;;;;;137.90;30.93;;;;;;;-145.18;100.00;46818.63;5025401;28;20068;-68
2022/01/15 05:53:28;;;;;;;161.60;34.47;;;;;;;-145.18;100.00;46824.47;5025738;28;20057;-68
2022/01/15 05:55:53;;;;;;;156.50;32.63;;;;;;;-145.18;100.00;46810.81;5026605;28;20052;-68
2022/01/15 05:58:18;;;;;;;140.23;32.93;;;;;;;-145.18;100.00;46812.75;5027305;28;20048;-68
2022/01/15 06:00:44;;;;;;;169.73;31.37;;;;;;;-145.18;100.00;46834.25;5025633;28;20410;-68
2022/01/15 06:03:09;;;;;;;177.47;33.00;;;;;;;-145.18;100.00;46824.47;5027340;28;20045;-68
2022/01/15 06:05:35;;;;;;;169.03;31.83;;;;;;;-145.18;100.00;46820.56;5024688;28;20044;-68
2022/01/15 06:08:00;;;;;;;168.50;33.70;;;;;;;-145.18;100.00;46830.34;5025513;28;20414;-70
2022/01/15 06:10:25;;;;;;;135.80;30.70;;;;;;;-145.18;100.00;46816.66;5025684;28;20048;-68
2022/01/15 06:12:51;;;;;;;204.37;33.90;;;;;;;-145.18;100.00;46810.81;5025735;28;20445;-68
2022/01/15 06:15:16;;;;;;;154.63;35.47;;;;;;;-145.18;100.00;46808.84;5027486;28;20441;-68
2022/01/15 06:17:43;;;;;;;183.97;32.70;;;;;;;-145.18;100.00;46836.19;5027100;28;20052;-68
2022/01/15 06:20:11;;;;;;;168.30;34.20;;;;;;;-145.18;100.00;46816.66;5026594;28;20069;-68
2022/01/15 06:22:36;;;;;;;160.93;34.77;;;;;;;-145.18;100.00;46808.84;5026441;28;20717;-71
2022/01/15 06:25:04;;;;;;;160.57;35.17;;;;;;;-145.18;100.00;46810.81;5026495;28;20293;-69
2022/01/15 06:27:31;;;;;;;180.60;35.43;;;;;;;-145.18;100.00;46822.53;5026867;28;20124;-69
2022/01/15 06:29:57;;;;;;;155.17;33.30;;;;;;;-145.18;100.00;46816.66;5024585;28;20282;-69
2022/01/15 06:32:27;;;;;;;221.23;34.10;;;;;;;-145.18;100.00;46814.72;5025632;28;20377;-69
2022/01/15 06:34:53;;;;;;;148.13;31.37;;;;;;;-145.18;100.00;46830.34;5021139;28;20636;-69
2022/01/15 06:37:19;;;;;;;133.30;31.93;;;;;;;-145.18;100.00;46810.81;5030698;28;21292;-69
2022/01/15 06:39:45;;;;;;;129.00;31.97;;;;;;;-145.18;100.00;46812.75;5030708;28;20282;-69
2022/01/15 06:42:10;;;;;;;161.30;34.43;;;;;;;-145.18;100.00;46826.44;5026070;28;20048;-69
2022/01/15 06:44:36;;;;;;;170.23;33.00;;;;;;;-145.18;100.00;46828.38;5024094;28;20278;-69
2022/01/15 06:47:01;;;;;;;134.30;35.17;;;;;;;-145.18;100.00;46820.56;5030245;28;20041;-69
2022/01/15 06:49:27;;;;;;;163.73;35.50;;;;;;;-145.18;100.00;46810.81;5031006;28;20108;-69
2022/01/15 06:51:52;;;;;;;164.33;32.77;;;;;;;-145.18;100.00;46797.13;5030189;28;20108;-69
2022/01/15 06:54:18;;;;;;;158.23;34.27;;;;;;;-145.18;100.00;46804.94;5028833;28;20046;-69
2022/01/15 06:56:43;;;;;;;137.77;33.87;;;;;;;-145.18;100.00;46793.22;5030099;28;20095;-69
2022/01/15 06:59:09;;;;;;;163.43;31.03;;;;;;;-145.18;100.00;46808.84;5030528;28;20061;-69
2022/01/15 07:01:35;;;;;;;176.03;33.50;;;;;;;-145.18;100.00;46816.66;5030028;28;20034;-70
2022/01/15 07:04:00;;;;;;;160.40;33.77;;;;;;;-145.18;100.00;46803.00;5030854;28;20275;-69
2022/01/15 07:06:26;;;;;;;171.07;34.70;;;;;;;-145.18;100.00;46801.03;5029531;28;20050;-69
2022/01/15 07:08:51;;;;;;;169.97;35.53;;;;;;;-145.18;100.00;46799.09;5029942;28;20454;-69
2022/01/15 07:11:17;;;;;;;155.23;38.17;;;;;;;-145.18;100.00;46816.66;5029759;28;20128;-69
2022/01/15 07:13:43;;;;;;;161.93;37.73;;;;;;;-145.18;100.00;46808.84;5030330;28;20052;-69
2022/01/15 07:16:08;;;;;;;202.97;40.60;;;;;;;-145.18;100.00;46804.94;5029796;28;20283;-69
2022/01/15 07:18:33;;;;;;;170.03;37.33;;;;;;;-145.18;100.00;46804.94;5027478;28;20095;-69
2022/01/15 07:20:59;;;;;;;173.10;38.03;;;;;;;-145.18;100.00;46803.00;5009603;28;20073;-69
2022/01/15 07:23:24;;;;;;;179.13;37.97;;;;;;;-145.18;100.00;46810.81;5010493;28;20068;-69
2022/01/15 07:25:50;;;;;;;202.47;40.57;;;;;;;-145.18;100.00;46803.00;5009265;28;20038;-69
2022/01/15 07:28:18;;;;;;;178.63;40.67;;;;;;;-145.18;100.00;46801.03;5010476;28;20061;-69
2022/01/15 07:30:43;;;;;;;169.53;38.43;;;;;;;-145.18;100.00;46804.94;5009712;28;20564;-70
2022/01/15 07:33:08;;;;;;;173.87;39.10;;;;;;;-145.18;100.00;46799.09;5010810;28;20351;-69
2022/01/15 07:35:34;;;;;;;160.77;38.30;;;;;;;-145.18;100.00;46789.31;5017574;28;20082;-69
2022/01/15 07:37:59;;;;;;;175.17;37.53;;;;;;;-145.18;100.00;46795.19;5027694;28;20033;-69
2022/01/15 07:40:25;;;;;;;184.83;39.27;;;;;;;-145.18;100.00;46808.84;5028668;28;20050;-69
2022/01/15 07:42:50;;;;;;;181.10;37.97;;;;;;;-145.18;100.00;46801.03;5028824;28;20411;-70
2022/01/15 07:45:17;;;;;;;185.90;39.27;;;;;;;-145.18;100.00;46797.13;5028319;28;20115;-70
2022/01/15 07:47:44;;;;;;;175.53;39.13;;;;;;;-145.18;100.00;46791.28;5025688;28;20525;-70
2022/01/15 07:50:23;;;;;;;211.00;40.27;;;;;;;-145.18;100.00;46799.09;5026528;28;20284;-70
2022/01/15 07:52:51;;;;;;;173.13;38.00;;;;;;;-145.18;100.00;46795.19;5028940;28;20736;-70
2022/01/15 07:55:16;;;;;;;188.20;39.07;;;;;;;-145.18;100.00;46795.19;5029149;28;20313;-69
2022/01/15 07:57:43;;;;;;;168.60;38.17;;;;;;;-145.18;100.00;46799.09;5027424;28;20756;-69
2022/01/15 08:00:10;;;;;;;190.30;40.33;;;;;;;-145.18;100.00;46785.41;5028816;28;20037;-70
2022/01/15 08:02:36;;;;;;;251.67;38.23;;;;;;;-145.18;100.00;46781.50;5024686;28;20640;-70
2022/01/15 08:05:01;;;;;;;198.07;37.93;;;;;;;-145.18;100.00;46787.38;5021180;28;20275;-70
2022/01/15 08:07:26;;;;;;;185.37;36.07;;;;;;;-145.18;100.00;46787.38;5009165;28;20100;-70
2022/01/15 08:09:52;;;;;;;170.93;34.80;;;;;;;-145.18;100.00;46801.03;5008798;28;20049;-70
2022/01/15 08:12:19;;;;;;;220.80;36.10;;;;;;;-145.18;100.00;46799.09;5008319;28;20402;-70
2022/01/15 08:14:45;;;;;;;206.07;38.77;;;;;;;-145.18;100.00;46803.00;5027385;28;20048;-70
2022/01/15 08:17:11;;;;;;;249.20;34.60;;;;;;;-145.18;100.00;46801.03;5020049;28;20332;-69
2022/01/15 08:19:36;;;;;;;182.60;37.47;;;;;;;-145.18;100.00;46785.41;5018683;28;20358;-71
2022/01/15 08:22:02;;;;;;;246.10;38.40;;;;;;;-145.18;100.00;46773.69;5022510;28;20046;-70
2022/01/15 08:24:27;;;;;;;205.47;38.60;;;;;;;-145.18;100.00;46783.47;5021986;28;20072;-69
2022/01/15 08:26:53;;;;;;;262.00;39.57;;;;;;;-145.18;100.00;46793.22;5024539;28;20041;-70
2022/01/15 08:29:19;;;;;;;187.47;35.03;;;;;;;-145.18;100.00;46795.19;5022135;28;20095;-70
2022/01/15 08:31:44;;;;;;;190.23;35.73;;;;;;;-145.18;100.00;46795.19;5023126;28;20048;-70
2022/01/15 08:34:10;;;;;;;174.57;35.10;;;;;;;-145.18;100.00;46783.47;5021912;28;20853;-70
2022/01/15 08:36:36;;;;;;;210.67;36.17;;;;;;;-145.18;100.00;46797.13;5021862;28;20126;-71
2022/01/15 08:39:04;;;;;;;152.77;33.63;;;;;;;-145.18;100.00;46777.59;5021530;28;20498;-70
2022/01/15 08:41:30;;;;;;;146.70;31.37;;;;;;;-145.18;100.00;46781.50;5022209;28;20665;-70
2022/01/15 08:43:55;;;;;;;202.07;33.93;;;;;;;-145.18;100.00;46787.38;5021765;28;20759;-70
2022/01/15 08:46:21;;;;;;;201.40;31.43;;;;;;;-145.18;100.00;46789.31;5023706;28;20053;-70
2022/01/15 08:48:47;;;;;;;172.27;32.40;;;;;;;-145.18;100.00;46801.03;5021755;28;20410;-70
2022/01/15 08:51:12;;;;;;;177.80;34.17;;;;;;;-145.18;100.00;46795.19;5021176;28;20506;-70
2022/01/15 08:53:38;;;;;;;188.53;33.90;;;;;;;-145.18;100.00;46810.81;5020885;28;20613;-70
2022/01/15 08:56:03;;;;;;;194.53;31.87;;;;;;;-145.18;100.00;46803.00;5018416;28;20131;-70
2022/01/15 08:58:29;;;;;;;187.40;31.30;;;;;;;-145.18;100.00;46787.38;5019779;28;20501;-70
2022/01/15 09:00:55;;;;;;;199.47;35.00;;;;;;;-145.18;100.00;46785.41;5019632;28;20037;-70
2022/01/15 09:03:22;;;;;;;146.00;30.90;;;;;;;-145.18;100.00;46793.22;5020687;28;20294;-70
2022/01/15 09:05:50;;;;;;;207.90;33.03;;;;;;;-145.18;100.00;46773.69;5021721;28;20111;-70
2022/01/15 09:08:15;;;;;;;195.57;31.60;;;;;;;-145.18;100.00;46791.28;5020859;28;20282;-70
2022/01/15 09:10:42;;;;;;;181.67;31.33;;;;;;;-145.18;100.00;46789.31;5023797;28;20266;-70
2022/01/15 09:13:10;;;;;;;194.43;31.13;;;;;;;-145.18;100.00;46803.00;5019892;28;20050;-70
2022/01/15 09:15:36;;;;;;;169.90;31.23;;;;;;;-145.18;100.00;46791.28;5018800;28;20297;-70
2022/01/15 09:18:02;;;;;;;159.83;31.40;;;;;;;-145.18;100.00;46785.41;5018488;28;20262;-70
2022/01/15 09:20:27;;;;;;;171.40;31.00;;;;;;;-145.18;100.00;46789.31;5021287;28;20462;-70
2022/01/15 09:22:53;;;;;;;209.60;31.77;;;;;;;-145.18;100.00;46789.31;5021388;28;20461;-70
2022/01/15 09:25:18;;;;;;;205.93;32.37;;;;;;;-145.18;100.00;46799.09;5019388;28;20136;-71
2022/01/15 09:30:28;;;;;;;153.77;31.03;;;;;;;-145.18;100.00;46789.31;5024479;28;20041;-70
2022/01/15 09:32:55;;;;;;;190.60;31.20;;;;;;;-145.18;100.00;46783.47;5024955;28;20271;-70
2022/01/15 09:35:23;;;;;;;194.87;31.00;;;;;;;-145.18;100.00;46806.91;5020869;28;20045;-70
2022/01/15 09:37:50;;;;;;;167.87;28.97;;;;;;;-145.18;100.00;46797.13;5018533;28;20271;-70
2022/01/15 09:40:17;;;;;;;165.90;29.07;;;;;;;-145.18;100.00;46801.03;5019057;28;20367;-70
2022/01/15 09:42:44;;;;;;;185.83;29.53;;;;;;;-145.18;100.00;46812.75;5022722;28;20341;-70
2022/01/15 09:45:11;;;;;;;210.50;29.23;;;;;;;-145.18;100.00;46799.09;5020443;28;20310;-70
2022/01/15 09:47:38;;;;;;;147.83;27.10;;;;;;;-145.18;100.00;46808.84;5020518;28;20405;-70
2022/01/15 09:50:06;;;;;;;152.37;27.30;;;;;;;-145.18;100.00;46808.84;5019160;28;20282;-70
2022/01/15 09:52:33;;;;;;;165.37;27.87;;;;;;;-145.18;100.00;46820.56;5018911;28;20369;-70
2022/01/15 09:54:59;;;;;;;128.53;23.97;;;;;;;-145.18;100.00;46803.00;5026263;28;20289;-70
2022/01/15 09:57:25;;;;;;;123.13;24.00;;;;;;;-145.18;100.00;46808.84;5026788;28;20266;-71
2022/01/15 09:59:50;;;;;;;126.10;24.30;;;;;;;-145.18;100.00;46797.13;5026622;28;20259;-70
2022/01/15 10:02:16;;;;;;;121.00;25.57;;;;;;;-145.18;100.00;46808.84;5023537;28;20045;-71
2022/01/15 10:04:42;;;;;;;111.97;23.87;;;;;;;-145.18;100.00;46822.53;5006717;28;20113;-70
2022/01/15 10:07:19;;;;;;;136.77;24.40;;;;;;;-145.18;100.00;46803.00;5007096;28;20497;-70
2022/01/15 10:09:45;;;;;;;143.80;22.63;;;;;;;-145.18;100.00;46828.38;5017118;28;20255;-70
2022/01/15 10:12:11;;;;;;;124.33;24.73;;;;;;;-145.18;100.00;46832.28;5025073;28;20267;-70
2022/01/15 10:14:40;;;;;;;104.07;21.97;;;;;;;-145.18;100.00;46832.28;5027099;28;20087;-71
2022/01/15 10:17:28;;;;;;;109.70;23.87;;;;;;;-145.18;100.00;46816.66;5026660;28;20285;-70
2022/01/15 10:19:58;;;;;;;93.90;21.23;;;;;;;-145.18;100.00;46840.09;5027039;28;20352;-69
2022/01/15 10:22:25;;;;;;;79.27;18.67;;;;;;;-145.18;100.00;46844.00;5026023;28;20286;-70
2022/01/15 10:24:54;;;;;;;76.67;19.40;;;;;;;-145.18;100.00;46844.00;5022663;28;20281;-70
2022/01/15 10:27:36;;;;;;;75.93;17.30;;;;;;;-145.18;100.00;46859.63;5026247;28;20307;-70
2022/01/15 10:30:08;;;;;;;67.10;17.63;;;;;;;-145.18;100.00;46859.63;5020371;28;20284;-70
2022/01/15 10:32:37;;;;;;;76.37;16.60;;;;;;;-145.18;100.00;46865.50;5015467;28;20270;-70
2022/01/15 10:35:14;;;;;;;46.27;14.40;;;;;;;-145.18;100.00;46883.09;5016994;28;20302;-70
2022/01/15 10:37:52;;;;;;;62.23;17.53;;;;;;;-145.18;100.00;46873.31;5017571;28;20268;-71
2022/01/15 10:40:22;;;;;;;62.90;16.20;;;;;;;-145.18;100.00;46861.59;5013528;28;20283;-70
2022/01/15 10:43:00;;;;;;;79.57;17.60;;;;;;;-145.18;100.00;46867.44;5023161;28;20355;-70
2022/01/15 10:45:31;;;;;;;70.87;17.37;;;;;;;-145.18;100.00;46859.63;5019803;28;20283;-70
2022/01/15 10:48:00;;;;;;;68.90;16.23;;;;;;;-145.18;100.00;46871.38;5017164;28;20272;-70
2022/01/15 10:50:34;;;;;;;77.37;16.67;;;;;;;-145.18;100.00;46865.50;5017308;28;20365;-70
2022/01/15 10:53:07;;;;;;;56.33;16.53;;;;;;;-145.18;100.00;46863.53;5016064;28;20264;-70
2022/01/15 10:55:33;;;;;;;58.77;15.90;;;;;;;-145.18;100.00;46875.28;5023968;28;20289;-70
2022/01/15 10:58:06;;;;;;;55.00;15.23;;;;;;;-145.18;100.00;46883.09;5025529;28;20271;-70
2022/01/15 11:00:42;;;;;;;42.47;14.53;;;;;;;-145.18;100.00;46863.53;5026643;28;20302;-70
2022/01/15 11:03:10;;;;;;;51.07;15.13;;;;;;;-145.18;100.00;46888.94;5025923;28;20269;-70
2022/01/15 11:05:40;;;;;;;44.33;14.90;;;;;;;-145.18;100.00;46883.09;5026067;28;20320;-70
2022/01/15 11:08:23;;;;;;;57.47;15.50;;;;;;;-145.18;100.00;46908.47;5025090;28;20342;-70
2022/01/15 11:10:56;;;;;;;49.87;14.97;;;;;;;-145.18;100.00;46902.63;5026238;28;20699;-70
2022/01/15 11:13:32;;;;;;;60.13;15.70;;;;;;;-145.18;100.00;46871.38;5026067;28;20760;-70